METAR / TAF

METAR / TAF
Aktuelle Wetterdaten für Piloten (ohne Gewähr!)


Available data for LSZB from the past 2 hours
BERN/BELP
Metar
LSZB 200920Z VRB02KT CAVOK 16/06 Q1026 NOSIG

09:20 UTC

Wind: ° 2kt

Visibility:

Sky:

Temp: 16 deg C / 60.8 deg F

Dewpoint: 6 deg C / 42.8 deg F

Pressure: 1026 hPa

TAF
TAF LSZB 200825Z 2009/2018 32005KT CAVOK PROB40 2011/2016 9999 FEW070

Available data for LSGS from the past 2 hours
SION (MIL/CIV/AU
Metar
LSGS 200920Z VRB01KT 9999 FEW100 18/00 Q1026

09:20 UTC

Wind: ° 1kt

Visibility: 9999 m

Sky: FEW 10000 ft

Temp: 18 deg C / 64.4 deg F

Dewpoint: 0 deg C / 32 deg F

Pressure: 1026 hPa

TAF
TAF LSGS 200825Z 2009/2018 08010KT 9999 FEW100

Available data for LSZG from the past 2 hours
GRENCHEN
Metar
LSZG 200920Z 05005KT CAVOK 16/07 Q1026 NOSIG

09:20 UTC

Wind: 50° 5kt

Visibility:

Sky:

Temp: 16 deg C / 60.8 deg F

Dewpoint: 7 deg C / 44.6 deg F

Pressure: 1026 hPa

TAF
TAF LSZG 200825Z 2009/2018 VRB03KT CAVOK BECMG 2012/2014 9999 FEW060 PROB30 2012/2015 06010KT

Available data for LSMP from the past 2 hours
PAYERNE (MIL/AUT
Metar
LSMP 200920Z AUTO 06003KT 360V130 9999NDV NCD 15/07 Q1026 RMK

Available data for LSZA from the past 2 hours
LUGANO (PVT/AUT)
Metar
LSZA 200920Z 20004KT 140V220 9999 FEW090 18/07 Q1028 NOSIG

09:20 UTC

Wind: 200° 4kt

Visibility: 9999 m

Sky: FEW 9000 ft

Temp: 18 deg C / 64.4 deg F

Dewpoint: 7 deg C / 44.6 deg F

Pressure: 1028 hPa

TAF
TAF LSZA 200825Z 2009/2018 VRB02KT 9999 FEW080 BECMG 2009/2011 20007KT

Available data for LSZS from the past 2 hours
SAMEDAN
Metar
LSZS 200920Z 04002KT CAVOK 05/M04 Q1029 RMK H

09:20 UTC

Wind: 40° 2kt

Visibility:

Sky:

Temp: 5 deg C / 41 deg F

Dewpoint: -4 deg C / 24.8 deg F

Pressure: 1029 hPa

TAF
TAF LSZS 200825Z 2009/2018 VRB03KT CAVOK TX12/2013Z PROB30 2012/2017 20010KT